createdAt,value
2018-11-11T00:00:16.881Z,21.3
2018-11-11T00:01:06.911Z,21.3
2018-11-11T00:01:57.582Z,21.3
2018-11-11T00:02:47.294Z,21.3
2018-11-11T00:03:37.411Z,21.3
2018-11-11T00:04:27.250Z,21.3
2018-11-11T00:05:16.963Z,21.3
2018-11-11T00:06:07.307Z,21.3
2018-11-11T00:06:57.342Z,21.3
2018-11-11T00:25:06.158Z,21.3
2018-11-11T00:25:56.555Z,21.3
2018-11-11T00:26:46.327Z,21.3
2018-11-11T00:27:36.710Z,21.3
2018-11-11T00:28:27.563Z,21.3
2018-11-11T00:29:17.139Z,21.3
2018-11-11T00:30:06.291Z,21.3
2018-11-11T00:30:56.625Z,21.3
2018-11-11T00:31:46.410Z,21.3
2018-11-11T00:32:36.154Z,21.3
2018-11-11T00:33:26.798Z,21.3
2018-11-11T00:34:16.847Z,21.3
2018-11-11T00:35:06.446Z,21.3
2018-11-11T00:35:56.680Z,21.3
2018-11-11T00:36:46.727Z,21.3
2018-11-11T00:37:37.415Z,21.3
2018-11-11T00:38:26.897Z,21.3
2018-11-11T00:39:17.504Z,21.3
2018-11-11T00:40:06.564Z,21.3
2018-11-11T00:40:56.867Z,21.3
2018-11-11T00:41:47.701Z,21.3
2018-11-11T00:42:37.482Z,21.3
2018-11-11T00:43:27.827Z,21.3
2018-11-11T00:44:17.164Z,21.2
2018-11-11T00:45:07.381Z,21.3
2018-11-11T00:45:57.974Z,21.3
2018-11-11T00:46:47.288Z,21.3
2018-11-11T00:47:37.722Z,21.3
2018-11-11T00:48:27.910Z,21.3
2018-11-11T00:49:17.434Z,21.2
2018-11-11T00:50:07.729Z,21.3
2018-11-11T00:50:59.083Z,21.3
2018-11-11T00:51:48.391Z,21.2
2018-11-11T00:52:37.386Z,21.3
2018-11-11T00:53:27.974Z,21.2
2018-11-11T00:54:18.006Z,21.2
2018-11-11T00:55:08.180Z,21.2
2018-11-11T00:55:58.638Z,21.2
2018-11-11T00:56:48.762Z,21.2
2018-11-11T00:57:38.566Z,21.3
2018-11-11T00:58:28.895Z,21.2
2018-11-11T00:59:18.933Z,21.2
2018-11-11T01:00:08.714Z,21.2
2018-11-11T01:00:58.180Z,21.2
2018-11-11T01:01:49.111Z,21.3
2018-11-11T01:02:38.881Z,21.2
2018-11-11T01:03:28.958Z,21.2
2018-11-11T01:04:19.305Z,21.2
2018-11-11T01:05:09.665Z,21.2
2018-11-11T01:05:59.693Z,21.2
2018-11-11T01:06:49.197Z,21.2
2018-11-11T01:07:38.968Z,21.2
2018-11-11T01:08:29.603Z,21.2
2018-11-11T01:09:19.903Z,21.2
2018-11-11T01:10:10.251Z,21.2
2018-11-11T01:10:59.292Z,21.2
2018-11-11T01:11:49.535Z,21.2
2018-11-11T01:12:39.640Z,21.2
2018-11-11T01:13:29.077Z,21.2
2018-11-11T01:14:19.444Z,21.2
2018-11-11T01:15:09.420Z,21.2
2018-11-11T01:15:59.900Z,21.2
2018-11-11T01:16:49.977Z,21.2
2018-11-11T01:17:40.254Z,21.2
2018-11-11T01:18:30.035Z,21.2
2018-11-11T01:19:20.122Z,21.2
2018-11-11T01:20:10.462Z,21.2
2018-11-11T01:21:00.500Z,21.2
2018-11-11T01:21:50.860Z,21.2
2018-11-11T01:23:29.565Z,21.2
2018-11-11T01:24:20.280Z,21.2
2018-11-11T01:26:00.601Z,21.2
2018-11-11T01:26:50.872Z,21.2
2018-11-11T01:31:00.950Z,21.2
2018-11-11T01:36:01.593Z,21.2
2018-11-11T02:08:33.975Z,21.1
2018-11-11T02:09:23.127Z,21.1
2018-11-11T02:11:03.044Z,21.1
2018-11-11T02:13:33.794Z,21.1
2018-11-11T02:16:03.996Z,21.1
2018-11-11T02:16:53.747Z,21.1
2018-11-11T02:17:44.066Z,21.1
2018-11-11T02:18:33.949Z,21.1
2018-11-11T02:20:14.021Z,21.1
2018-11-11T02:21:04.314Z,21.1
2018-11-11T02:21:54.685Z,21.1
2018-11-11T02:22:44.506Z,21.1
2018-11-11T02:23:35.295Z,21.1
2018-11-11T02:24:24.580Z,21.1
2018-11-11T02:25:14.554Z,21.1
2018-11-11T02:26:04.968Z,21.1
2018-11-11T02:26:55.542Z,21.1
2018-11-11T02:27:44.788Z,21.1
2018-11-11T02:28:33.833Z,21.1
2018-11-11T02:29:24.351Z,21.1
2018-11-11T02:30:14.806Z,21.1
2018-11-11T02:31:04.760Z,21.1
2018-11-11T02:31:55.385Z,21.1
2018-11-11T02:32:44.619Z,21.1
2018-11-11T02:33:34.478Z,21.1
2018-11-11T02:34:25.016Z,21.1
2018-11-11T02:35:14.896Z,21.1
2018-11-11T02:36:04.953Z,21.1
2018-11-11T02:36:54.590Z,21.1
2018-11-11T02:37:46.200Z,21.1
2018-11-11T02:38:34.839Z,21.1
2018-11-11T02:39:25.905Z,21.1
2018-11-11T02:40:15.155Z,21.1
2018-11-11T02:41:05.488Z,21.1
2018-11-11T02:41:55.555Z,21.1
2018-11-11T02:42:45.355Z,21.1
2018-11-11T02:43:36.213Z,21.1
2018-11-11T02:44:26.567Z,21.1
2018-11-11T02:45:16.096Z,21.1
2018-11-11T02:46:05.822Z,21.1
2018-11-11T02:46:56.202Z,21.1
2018-11-11T02:47:45.577Z,21.1
2018-11-11T02:48:36.052Z,21.1
2018-11-11T02:49:26.090Z,21.1
2018-11-11T02:50:15.610Z,21
2018-11-11T02:51:06.069Z,21.1
2018-11-11T02:51:56.299Z,21.1
2018-11-11T02:52:46.064Z,21.1
2018-11-11T02:53:36.159Z,21.1
2018-11-11T02:54:26.187Z,21.1
2018-11-11T02:55:16.512Z,21.1
2018-11-11T02:56:06.376Z,21
2018-11-11T02:56:56.394Z,21.1
2018-11-11T02:57:46.136Z,21
2018-11-11T02:58:36.509Z,21
2018-11-11T02:59:26.613Z,21.1
2018-11-11T03:00:16.621Z,21.1
2018-11-11T03:01:06.919Z,21.1
2018-11-11T03:01:56.792Z,21.1
2018-11-11T03:02:47.154Z,21.1
2018-11-11T03:03:37.643Z,21
2018-11-11T03:04:27.592Z,21
2018-11-11T03:05:17.528Z,21
2018-11-11T03:06:07.581Z,21
2018-11-11T03:06:57.326Z,21
2018-11-11T03:07:48.024Z,21
2018-11-11T03:08:37.311Z,21
2018-11-11T03:09:28.608Z,21
2018-11-11T03:10:18.401Z,21
2018-11-11T03:11:08.105Z,21
2018-11-11T03:11:58.505Z,21
2018-11-11T03:12:48.363Z,21
2018-11-11T03:13:38.110Z,21
2018-11-11T03:14:28.937Z,21
2018-11-11T03:15:18.524Z,21
2018-11-11T03:16:07.733Z,21
2018-11-11T03:16:58.559Z,21
2018-11-11T03:17:48.149Z,21
2018-11-11T03:18:38.678Z,21
2018-11-11T03:19:28.976Z,21
2018-11-11T03:20:19.339Z,21
2018-11-11T03:21:08.645Z,21
2018-11-11T03:21:58.728Z,21
2018-11-11T03:22:47.985Z,21
2018-11-11T03:23:39.330Z,21
2018-11-11T03:24:29.467Z,21
2018-11-11T03:25:18.468Z,21
2018-11-11T03:26:08.425Z,21
2018-11-11T03:26:59.342Z,21
2018-11-11T03:27:49.140Z,21
2018-11-11T03:28:39.187Z,21
2018-11-11T03:29:29.039Z,21
2018-11-11T03:30:19.047Z,21
2018-11-11T03:31:09.541Z,21
2018-11-11T03:31:59.967Z,21
2018-11-11T03:32:50.271Z,21
2018-11-11T03:33:39.890Z,21
2018-11-11T03:34:30.450Z,21
2018-11-11T03:35:19.595Z,21
2018-11-11T03:36:10.200Z,21
2018-11-11T03:37:00.231Z,21
2018-11-11T03:37:50.624Z,21
2018-11-11T03:38:39.621Z,21
2018-11-11T03:39:30.456Z,21
2018-11-11T03:40:19.789Z,21
2018-11-11T03:41:10.303Z,21
2018-11-11T03:42:00.049Z,21
2018-11-11T03:42:50.686Z,20.9
2018-11-11T03:43:40.463Z,21
2018-11-11T03:44:30.056Z,20.9
2018-11-11T03:45:20.879Z,21
2018-11-11T03:46:10.736Z,21
2018-11-11T03:47:00.991Z,20.9
2018-11-11T03:47:51.149Z,21
2018-11-11T03:48:40.651Z,21
2018-11-11T03:49:30.891Z,20.9
2018-11-11T03:50:20.631Z,21
2018-11-11T03:51:11.081Z,21
2018-11-11T03:52:01.342Z,21
2018-11-11T03:52:51.741Z,20.9
2018-11-11T03:53:40.623Z,20.9
2018-11-11T03:54:31.548Z,20.9
2018-11-11T03:55:21.578Z,20.9
2018-11-11T03:56:11.361Z,20.9
2018-11-11T03:57:01.983Z,21
2018-11-11T03:57:52.033Z,20.9
2018-11-11T03:58:42.107Z,20.9
2018-11-11T03:59:31.138Z,21
2018-11-11T04:00:21.669Z,20.9
2018-11-11T04:01:11.532Z,21
2018-11-11T04:02:01.308Z,20.9
2018-11-11T04:02:51.935Z,21
2018-11-11T04:03:41.965Z,20.9
2018-11-11T04:04:31.665Z,20.9
2018-11-11T04:05:21.514Z,20.9
2018-11-11T04:06:12.605Z,20.9
2018-11-11T04:07:02.052Z,20.9
2018-11-11T04:07:52.500Z,20.9
2018-11-11T04:08:42.058Z,20.9
2018-11-11T04:09:32.612Z,20.9
2018-11-11T04:10:23.230Z,20.9
2018-11-11T04:11:12.499Z,20.9
2018-11-11T04:12:01.940Z,20.9
2018-11-11T04:12:52.834Z,20.9
2018-11-11T04:13:42.640Z,20.9
2018-11-11T04:14:32.408Z,20.9
2018-11-11T04:15:23.021Z,20.9
2018-11-11T04:16:12.540Z,20.9
2018-11-11T04:17:03.239Z,20.9
2018-11-11T04:17:53.201Z,20.9
2018-11-11T04:18:43.551Z,20.9
2018-11-11T04:19:33.427Z,20.9
2018-11-11T04:20:23.702Z,20.9
2018-11-11T04:21:12.777Z,20.9
2018-11-11T04:22:03.504Z,20.9
2018-11-11T04:22:53.379Z,20.9
2018-11-11T04:23:43.859Z,20.9
2018-11-11T04:24:33.123Z,20.9
2018-11-11T04:25:23.448Z,20.9
2018-11-11T04:26:13.330Z,20.9
2018-11-11T04:27:04.149Z,20.9
2018-11-11T04:27:53.999Z,20.9
2018-11-11T04:28:44.296Z,20.9
2018-11-11T04:29:33.756Z,20.9
2018-11-11T04:30:24.146Z,20.9
2018-11-11T04:31:14.679Z,20.9
2018-11-11T04:32:04.501Z,20.9
2018-11-11T04:32:53.985Z,20.9
2018-11-11T04:33:44.350Z,20.9
2018-11-11T04:34:34.128Z,20.9
2018-11-11T04:35:24.196Z,20.9
2018-11-11T04:36:14.041Z,20.9
2018-11-11T04:54:17.392Z,20.9
2018-11-11T04:55:07.628Z,20.9
2018-11-11T04:55:57.897Z,20.9
2018-11-11T04:56:47.945Z,20.9
2018-11-11T04:57:38.029Z,20.9
2018-11-11T04:58:27.811Z,20.9
2018-11-11T04:59:17.797Z,20.9
2018-11-11T05:00:07.696Z,20.9
2018-11-11T05:00:57.471Z,20.9
2018-11-11T05:01:48.034Z,20.9
2018-11-11T05:02:37.783Z,20.9
2018-11-11T05:03:27.645Z,20.9
2018-11-11T05:04:18.496Z,20.9
2018-11-11T05:05:08.206Z,20.9
2018-11-11T05:05:57.738Z,20.9
2018-11-11T05:06:48.635Z,20.9
2018-11-11T05:07:38.445Z,20.9
2018-11-11T05:08:28.220Z,20.9
2018-11-11T05:09:18.526Z,20.9
2018-11-11T05:10:08.927Z,20.9
2018-11-11T05:10:58.405Z,20.9
2018-11-11T05:11:48.440Z,20.9
2018-11-11T05:12:38.277Z,20.9
2018-11-11T05:13:27.707Z,20.9
2018-11-11T05:14:18.155Z,20.9
2018-11-11T05:15:08.316Z,20.9
2018-11-11T05:15:58.525Z,20.9
2018-11-11T05:16:48.790Z,20.9
2018-11-11T05:17:39.124Z,20.9
2018-11-11T05:18:29.095Z,20.9
2018-11-11T05:19:18.998Z,20.9
2018-11-11T05:20:08.912Z,20.9
2018-11-11T05:20:59.053Z,20.9
2018-11-11T05:21:49.523Z,20.9
2018-11-11T05:22:39.514Z,20.9
2018-11-11T05:23:29.080Z,20.9
2018-11-11T05:24:19.609Z,20.9
2018-11-11T05:25:08.870Z,20.9
2018-11-11T05:26:00.017Z,20.9
2018-11-11T05:26:49.821Z,20.9
2018-11-11T05:27:39.849Z,20.9
2018-11-11T05:28:29.914Z,20.9
2018-11-11T05:29:19.483Z,20.9
2018-11-11T05:30:09.709Z,20.9
2018-11-11T05:30:59.929Z,20.9
2018-11-11T05:31:50.179Z,20.9
2018-11-11T05:32:39.934Z,20.9
2018-11-11T05:33:29.199Z,20.9
2018-11-11T05:34:20.326Z,20.9
2018-11-11T05:35:09.916Z,20.9
2018-11-11T05:35:59.963Z,20.9
2018-11-11T05:36:50.246Z,20.9
2018-11-11T05:37:40.304Z,20.9
2018-11-11T05:38:30.069Z,20.9
2018-11-11T05:39:19.634Z,20.9
2018-11-11T05:40:10.073Z,20.9
2018-11-11T05:41:01.321Z,20.9
2018-11-11T05:41:50.116Z,20.9
2018-11-11T05:42:40.633Z,20.9
2018-11-11T05:43:30.719Z,20.9
2018-11-11T05:44:20.778Z,20.9
2018-11-11T05:45:10.833Z,20.9
2018-11-11T05:46:01.153Z,20.9
2018-11-11T05:46:50.756Z,20.9
2018-11-11T05:47:40.723Z,20.9
2018-11-11T05:48:30.770Z,20.9
2018-11-11T05:49:20.359Z,20.9
2018-11-11T05:50:11.001Z,20.9
2018-11-11T05:51:01.753Z,20.9
2018-11-11T05:51:51.107Z,21
2018-11-11T05:52:41.972Z,20.9
2018-11-11T05:53:31.483Z,20.9
2018-11-11T05:54:20.800Z,20.9
2018-11-11T05:55:11.830Z,20.9
2018-11-11T05:56:02.128Z,20.9
2018-11-11T05:56:51.665Z,20.9
2018-11-11T05:57:41.515Z,20.9
2018-11-11T05:58:32.406Z,20.9
2018-11-11T05:59:21.345Z,20.9
2018-11-11T06:00:11.883Z,21
2018-11-11T06:01:02.025Z,21
2018-11-11T06:01:51.794Z,21.1
2018-11-11T06:02:41.672Z,21.1
2018-11-11T06:04:21.984Z,21.2
2018-11-11T06:05:11.769Z,21.2
2018-11-11T06:06:02.562Z,21.2
2018-11-11T06:06:51.634Z,21.3
2018-11-11T06:07:41.934Z,21.3
2018-11-11T06:08:32.967Z,21.3
2018-11-11T06:09:22.844Z,21.3
2018-11-11T06:10:12.682Z,21.3
2018-11-11T06:11:02.365Z,21.3
2018-11-11T06:11:53.281Z,21.2
2018-11-11T06:12:42.787Z,21.2
2018-11-11T06:13:32.833Z,21.2
2018-11-11T06:14:23.194Z,21.2
2018-11-11T06:15:13.327Z,21.2
2018-11-11T06:16:53.221Z,21.2
2018-11-11T06:17:43.128Z,21.2
2018-11-11T06:18:33.753Z,21.2
2018-11-11T06:21:03.681Z,21.2
2018-11-11T06:50:16.039Z,21.1
2018-11-11T07:06:56.917Z,21.1
2018-11-11T07:07:46.927Z,21.1
2018-11-11T07:08:37.335Z,21.1
2018-11-11T07:09:26.924Z,21.1
2018-11-11T07:10:17.259Z,21.1
2018-11-11T07:11:06.934Z,21.1
2018-11-11T07:12:47.872Z,21.1
2018-11-11T07:14:27.001Z,21.1
2018-11-11T07:16:57.079Z,21.1
2018-11-11T07:19:26.948Z,21.1
2018-11-11T07:20:17.567Z,21.1
2018-11-11T07:21:07.945Z,21.1
2018-11-11T07:21:58.296Z,21.1
2018-11-11T07:22:48.532Z,21.1
2018-11-11T07:24:27.900Z,21.1
2018-11-11T07:25:18.220Z,21.1
2018-11-11T07:26:07.701Z,21.1
2018-11-11T07:26:58.065Z,21.1
2018-11-11T07:27:48.952Z,21.1
2018-11-11T07:28:37.585Z,21.1
2018-11-11T07:29:28.542Z,21.1
2018-11-11T07:30:17.838Z,21.1
2018-11-11T07:31:58.407Z,21.1
2018-11-11T07:32:48.485Z,21.1
2018-11-11T07:33:38.642Z,21.1
2018-11-11T07:34:28.707Z,21.1
2018-11-11T07:35:18.639Z,21.1
2018-11-11T07:36:09.146Z,21.1
2018-11-11T07:36:59.059Z,21.1
2018-11-11T07:37:49.361Z,21.1
2018-11-11T07:38:38.849Z,21.1
2018-11-11T07:39:28.367Z,21.1
2018-11-11T07:40:18.749Z,21.1
2018-11-11T07:41:09.090Z,21.1
2018-11-11T07:41:59.677Z,21.1
2018-11-11T07:42:49.214Z,21.1
2018-11-11T07:43:39.619Z,21.1
2018-11-11T07:44:29.396Z,21.1
2018-11-11T07:45:19.393Z,21.1
2018-11-11T07:46:09.710Z,21.1
2018-11-11T07:46:59.888Z,21.1
2018-11-11T07:47:50.369Z,21.1
2018-11-11T07:48:39.215Z,21.1
2018-11-11T07:49:29.092Z,21
2018-11-11T07:50:20.026Z,19.3
2018-11-11T07:51:09.512Z,35.2
2018-11-11T07:52:00.268Z,47.7
2018-11-11T07:52:49.704Z,50.8
2018-11-11T07:53:39.727Z,50.3
2018-11-11T07:54:30.315Z,49.7
2018-11-11T07:55:20.549Z,49.1
2018-11-11T07:56:10.221Z,48.4
2018-11-11T07:56:59.620Z,47.8
2018-11-11T07:57:50.260Z,47.2
2018-11-11T07:58:40.419Z,46.6
2018-11-11T07:59:30.386Z,46
2018-11-11T08:00:20.169Z,45.4
2018-11-11T08:01:09.932Z,44.8
2018-11-11T08:02:00.493Z,44.2
2018-11-11T08:02:50.597Z,43.6
2018-11-11T08:03:40.198Z,43.1
2018-11-11T08:04:31.007Z,42.6
2018-11-11T08:05:20.300Z,42.1
2018-11-11T08:06:10.597Z,41.6
2018-11-11T08:07:00.702Z,41.1
2018-11-11T08:07:50.965Z,40.6
2018-11-11T08:08:40.990Z,40.2
2018-11-11T08:09:30.530Z,39.8
2018-11-11T08:10:21.177Z,39.3
2018-11-11T08:11:11.853Z,38.9
2018-11-11T08:12:01.085Z,40.2
2018-11-11T08:12:51.317Z,44.1
2018-11-11T08:13:41.110Z,52.6
2018-11-11T08:14:31.745Z,54.1
2018-11-11T08:15:21.016Z,53.1
2018-11-11T08:16:11.582Z,50.8
2018-11-11T08:17:01.253Z,48.5
2018-11-11T08:17:52.263Z,47.4
2018-11-11T08:18:41.469Z,46.8
2018-11-11T08:19:31.792Z,46.3
2018-11-11T08:20:22.124Z,45.7
2018-11-11T08:21:12.526Z,45.1
2018-11-11T08:22:02.287Z,44.5
2018-11-11T08:22:52.352Z,43.9
2018-11-11T08:23:42.124Z,43.4
2018-11-11T08:24:31.877Z,42.9
2018-11-11T08:25:22.866Z,42.6
2018-11-11T08:26:11.604Z,42.6
2018-11-11T08:27:01.164Z,48.1
2018-11-11T08:27:52.406Z,54.5
2018-11-11T08:28:42.191Z,56.1
2018-11-11T08:29:32.534Z,56.3
2018-11-11T08:30:21.892Z,54.4
2018-11-11T08:31:12.636Z,51.3
2018-11-11T08:32:02.975Z,48.8
2018-11-11T08:32:53.326Z,48.4
2018-11-11T08:33:42.636Z,49.8
2018-11-11T08:34:32.662Z,51.5
2018-11-11T08:35:23.233Z,52.7
2018-11-11T08:36:13.290Z,53.1
2018-11-11T08:37:03.048Z,52.8
2018-11-11T08:37:52.906Z,52
2018-11-11T08:38:43.455Z,51.3
2018-11-11T08:39:33.237Z,51.1
2018-11-11T08:40:23.356Z,51.3
2018-11-11T08:41:12.886Z,51.8
2018-11-11T08:42:03.428Z,52.3
2018-11-11T08:42:53.517Z,52.6
2018-11-11T08:43:43.825Z,52.7
2018-11-11T08:44:33.309Z,52.6
2018-11-11T08:45:24.203Z,52.5
2018-11-11T08:46:13.237Z,52.4
2018-11-11T08:47:03.578Z,52.6
2018-11-11T08:47:54.122Z,52.8
2018-11-11T08:48:43.910Z,53
2018-11-11T08:49:34.739Z,53.3
2018-11-11T08:50:23.737Z,53.4
2018-11-11T08:51:14.088Z,53.4
2018-11-11T08:52:04.707Z,53.4
2018-11-11T09:08:45.247Z,55.5
2018-11-11T09:09:34.843Z,55.6
2018-11-11T09:10:25.862Z,55.8
2018-11-11T09:11:16.078Z,55.8
2018-11-11T09:12:04.706Z,55.9
2018-11-11T09:12:55.511Z,56
2018-11-11T09:13:45.593Z,56.1
2018-11-11T09:14:35.656Z,56.2
2018-11-11T09:15:24.659Z,56.3
2018-11-11T09:16:15.773Z,56.4
2018-11-11T09:17:05.659Z,56.6
2018-11-11T09:17:55.631Z,56.6
2018-11-11T09:18:45.936Z,56.8
2018-11-11T09:19:35.711Z,56.9
2018-11-11T09:20:26.053Z,57.1
2018-11-11T09:21:16.366Z,57.1
2018-11-11T09:22:05.713Z,57.3
2018-11-11T09:22:55.400Z,57.4
2018-11-11T09:23:45.628Z,57.4
2018-11-11T09:24:35.418Z,57.6
2018-11-11T09:25:26.231Z,57.6
2018-11-11T09:26:16.030Z,57.7
2018-11-11T09:27:06.843Z,57.8
2018-11-11T09:27:56.353Z,57.9
2018-11-11T09:28:46.401Z,58
2018-11-11T09:29:37.559Z,58
2018-11-11T09:30:28.101Z,58.1
2018-11-11T09:31:16.863Z,58.2
2018-11-11T09:32:06.095Z,58.3
2018-11-11T09:32:56.960Z,58.3
2018-11-11T09:33:46.245Z,58.4
2018-11-11T09:34:37.127Z,58.4
2018-11-11T09:35:28.474Z,58.5
2018-11-11T09:37:07.005Z,58.6
2018-11-11T09:37:56.850Z,58.7
2018-11-11T09:38:47.234Z,58.8
2018-11-11T09:39:37.541Z,58.8
2018-11-11T09:40:27.247Z,58.9
2018-11-11T09:41:17.364Z,59
2018-11-11T09:42:07.674Z,59.1
2018-11-11T09:42:57.312Z,59.1
2018-11-11T09:43:47.507Z,59.2
2018-11-11T09:44:36.862Z,59.3
2018-11-11T09:45:28.195Z,59.4
2018-11-11T09:46:18.257Z,59.4
2018-11-11T09:47:08.022Z,59.4
2018-11-11T09:47:58.334Z,59.5
2018-11-11T09:48:47.806Z,59.5
2018-11-11T09:49:37.992Z,59.6
2018-11-11T09:50:28.251Z,59.6
2018-11-11T09:51:17.799Z,59.7
2018-11-11T09:52:07.654Z,59.8
2018-11-11T09:52:57.364Z,59.8
2018-11-11T09:53:48.374Z,59.8
2018-11-11T09:54:38.337Z,59.9
2018-11-11T09:55:28.023Z,59.9
2018-11-11T09:56:18.722Z,60
2018-11-11T09:57:08.495Z,60.1
2018-11-11T09:57:58.624Z,60.1
2018-11-11T09:58:49.630Z,60.1
2018-11-11T09:59:39.252Z,60.3
2018-11-11T10:00:28.998Z,60.3
2018-11-11T10:01:18.467Z,60.3
2018-11-11T10:02:08.212Z,60.4
2018-11-11T10:02:58.954Z,60.4
2018-11-11T10:03:48.728Z,60.6
2018-11-11T10:04:39.046Z,60.6
2018-11-11T10:05:29.598Z,60.7
2018-11-11T10:06:19.327Z,60.8
2018-11-11T10:07:10.196Z,60.8
2018-11-11T10:07:58.647Z,60.8
2018-11-11T10:08:48.522Z,60.8
2018-11-11T10:09:38.769Z,60.9
2018-11-11T10:10:29.079Z,60.9
2018-11-11T10:11:19.778Z,61
2018-11-11T10:12:09.658Z,61.1
2018-11-11T10:12:59.042Z,61.1
2018-11-11T10:13:48.781Z,61.1
2018-11-11T10:14:39.144Z,61.2
2018-11-11T10:15:29.182Z,61.2
2018-11-11T10:16:19.609Z,61.3
2018-11-11T10:17:09.627Z,61.3
2018-11-11T10:18:00.016Z,61.3
2018-11-11T10:18:49.844Z,61.3
2018-11-11T10:19:39.788Z,61.4
2018-11-11T10:20:31.083Z,61.4
2018-11-11T10:21:20.533Z,61.3
2018-11-11T10:22:10.319Z,61.3
2018-11-11T10:23:00.408Z,61.4
2018-11-11T10:23:50.161Z,61.4
2018-11-11T10:24:40.153Z,61.5
2018-11-11T10:25:30.278Z,61.5
2018-11-11T10:26:20.843Z,61.5
2018-11-11T10:27:10.921Z,61.6
2018-11-11T10:28:00.175Z,61.6
2018-11-11T10:28:50.705Z,61.6
2018-11-11T10:29:40.392Z,61.6
2018-11-11T10:30:30.448Z,61.6
2018-11-11T10:31:20.426Z,61.6
2018-11-11T10:32:10.970Z,61.6
2018-11-11T10:33:01.327Z,61.4
2018-11-11T10:33:50.907Z,61.4
2018-11-11T10:34:40.857Z,61.6
2018-11-11T10:35:31.483Z,61.7
2018-11-11T10:36:21.216Z,61.8
2018-11-11T10:37:10.928Z,61.8
2018-11-11T10:38:01.294Z,61.8
2018-11-11T10:38:51.153Z,61.8
2018-11-11T10:39:42.086Z,61.8
2018-11-11T10:40:31.923Z,61.8
2018-11-11T10:41:21.465Z,61.9
2018-11-11T10:42:11.651Z,61.9
2018-11-11T10:43:01.568Z,62
2018-11-11T10:43:51.835Z,62.1
2018-11-11T10:44:41.925Z,62.1
2018-11-11T10:45:31.632Z,62.1
2018-11-11T10:46:22.066Z,62.1
2018-11-11T10:47:12.569Z,62.1
2018-11-11T10:48:02.427Z,62.1
2018-11-11T10:48:52.451Z,62.1
2018-11-11T10:49:42.239Z,62.1
2018-11-11T10:50:31.527Z,62.1
2018-11-11T10:51:22.352Z,62.1
2018-11-11T10:52:12.221Z,62.2
2018-11-11T10:53:02.275Z,62.2
2018-11-11T10:53:52.233Z,62.2
2018-11-11T10:54:43.466Z,62.1
2018-11-11T10:55:32.954Z,62.1
2018-11-11T10:56:22.141Z,62.1
2018-11-11T10:57:12.776Z,62.1
2018-11-11T10:58:02.809Z,62.1
2018-11-11T10:58:52.607Z,62.1
2018-11-11T10:59:42.746Z,62.1
2018-11-11T11:00:32.447Z,62.1
2018-11-11T11:01:22.605Z,62
2018-11-11T11:02:13.145Z,62
2018-11-11T11:03:03.469Z,62
2018-11-11T11:03:52.763Z,61.9
2018-11-11T11:04:43.084Z,61.9
2018-11-11T11:05:33.171Z,61.9
2018-11-11T11:06:24.021Z,61.9
2018-11-11T11:07:14.089Z,61.9
2018-11-11T11:08:03.654Z,61.8
2018-11-11T11:08:53.328Z,61.7
2018-11-11T11:09:43.080Z,61.6
2018-11-11T11:10:34.058Z,61.6
2018-11-11T11:11:23.793Z,61.4
2018-11-11T11:12:13.844Z,61.3
2018-11-11T11:13:04.291Z,61.2
2018-11-11T11:13:54.847Z,61.1
2018-11-11T11:14:44.611Z,61.1
2018-11-11T11:15:33.895Z,61
2018-11-11T11:16:24.169Z,60.9
2018-11-11T11:17:14.286Z,60.9
2018-11-11T11:18:04.315Z,60.8
2018-11-11T11:18:53.583Z,60.8
2018-11-11T11:19:44.710Z,60.6
2018-11-11T11:20:34.468Z,60.6
2018-11-11T11:21:24.257Z,60.5
2018-11-11T11:22:15.102Z,60.4
2018-11-11T11:23:05.887Z,60.3
2018-11-11T11:23:54.463Z,60.2
2018-11-11T11:24:44.479Z,60.1
2018-11-11T11:25:34.925Z,60
2018-11-11T11:26:24.893Z,59.9
2018-11-11T11:27:15.611Z,59.8
2018-11-11T11:28:05.080Z,59.8
2018-11-11T11:28:55.577Z,59.7
2018-11-11T11:29:45.123Z,59.7
2018-11-11T11:30:35.717Z,59.6
2018-11-11T11:31:25.910Z,59.5
2018-11-11T11:32:15.688Z,59.5
2018-11-11T11:33:05.311Z,59.4
2018-11-11T11:33:55.517Z,59.4
2018-11-11T11:34:45.761Z,59.4
2018-11-11T11:35:36.620Z,59.4
2018-11-11T11:36:25.648Z,59.4
2018-11-11T11:37:16.266Z,59.4
2018-11-11T11:38:05.850Z,59.4
2018-11-11T11:38:56.081Z,59.3
2018-11-11T11:39:45.877Z,59.3
2018-11-11T11:40:36.011Z,59.3
2018-11-11T11:41:26.526Z,59.3
2018-11-11T11:42:16.021Z,59.3
2018-11-11T11:43:05.811Z,59.2
2018-11-11T11:43:55.826Z,59.2
2018-11-11T11:44:46.486Z,59.2
2018-11-11T11:45:36.286Z,59.1
2018-11-11T11:46:26.124Z,59.2
2018-11-11T11:47:17.223Z,59.1
2018-11-11T11:48:07.021Z,59.1
2018-11-11T11:48:56.933Z,59.1
2018-11-11T11:49:45.860Z,59.1
2018-11-11T11:50:36.431Z,59.1
2018-11-11T11:51:26.498Z,59.1
2018-11-11T11:52:17.781Z,59.1
2018-11-11T11:53:07.801Z,59.1
2018-11-11T11:53:56.849Z,59.1
2018-11-11T11:54:47.228Z,59.1
2018-11-11T11:55:36.977Z,59
2018-11-11T11:56:27.338Z,59
2018-11-11T11:57:17.403Z,59
2018-11-11T11:58:06.986Z,59
2018-11-11T11:58:56.661Z,59
2018-11-11T11:59:47.287Z,59
2018-11-11T12:00:37.445Z,59
2018-11-11T12:01:27.418Z,59
2018-11-11T12:02:17.580Z,59
2018-11-11T12:03:07.256Z,58.9
2018-11-11T12:03:57.341Z,58.9
2018-11-11T12:04:47.748Z,58.9
2018-11-11T12:05:37.442Z,58.8
2018-11-11T12:06:27.471Z,58.8
2018-11-11T12:07:18.135Z,58.7
2018-11-11T12:08:07.690Z,58.7
2018-11-11T12:08:58.524Z,58.6
2018-11-11T12:11:27.307Z,58.5
2018-11-11T12:12:18.303Z,58.4
2018-11-11T12:13:07.872Z,58.4
2018-11-11T12:13:58.300Z,58.3
2018-11-11T12:14:47.602Z,58.2
2018-11-11T12:15:38.504Z,58.1
2018-11-11T12:16:28.599Z,58.1
2018-11-11T12:17:18.975Z,58.1
2018-11-11T12:18:08.650Z,58
2018-11-11T12:18:58.679Z,57.9
2018-11-11T12:19:47.857Z,57.9
2018-11-11T12:20:38.812Z,57.8
2018-11-11T12:21:28.412Z,57.7
2018-11-11T12:22:18.641Z,57.6
2018-11-11T12:23:08.780Z,57.4
2018-11-11T12:23:58.637Z,57.4
2018-11-11T12:24:49.959Z,57.4
2018-11-11T12:25:39.829Z,57.3
2018-11-11T12:26:29.236Z,57.3
2018-11-11T12:27:19.631Z,57.2
2018-11-11T12:28:09.164Z,57.1
2018-11-11T12:28:58.944Z,56.9
2018-11-11T12:29:49.746Z,56.9
2018-11-11T12:30:40.142Z,56.8
2018-11-11T12:31:29.024Z,56.7
2018-11-11T12:32:19.472Z,56.7
2018-11-11T12:33:09.539Z,56.6
2018-11-11T12:33:59.766Z,56.5
2018-11-11T12:34:50.678Z,56.4
2018-11-11T12:35:40.116Z,56.3
2018-11-11T12:36:30.241Z,56.3
2018-11-11T12:37:20.223Z,56.2
2018-11-11T12:38:10.391Z,56.1
2018-11-11T12:39:00.934Z,56
2018-11-11T12:39:52.476Z,55.9
2018-11-11T12:40:39.981Z,55.8
2018-11-11T12:41:30.033Z,55.8
2018-11-11T12:42:20.718Z,55.7
2018-11-11T12:43:10.827Z,55.6
2018-11-11T12:44:00.339Z,55.6
2018-11-11T12:44:51.084Z,55.5
2018-11-11T12:45:40.900Z,55.4
2018-11-11T12:46:31.344Z,55.3
2018-11-11T12:47:20.258Z,55.3
2018-11-11T12:48:10.800Z,55.2
2018-11-11T12:49:01.356Z,55.1
2018-11-11T12:49:51.267Z,55.1
2018-11-11T12:50:41.518Z,54.9
2018-11-11T12:51:31.073Z,54.2
2018-11-11T12:52:21.673Z,53.4
2018-11-11T12:53:11.167Z,52.6
2018-11-11T12:54:00.932Z,51.9
2018-11-11T12:54:52.321Z,51.2
2018-11-11T12:55:41.455Z,50.5
2018-11-11T12:56:30.638Z,49.9
2018-11-11T12:57:21.471Z,49.3
2018-11-11T12:58:11.879Z,48.7
2018-11-11T12:59:01.612Z,48.1
2018-11-11T12:59:51.084Z,47.6
2018-11-11T13:00:40.743Z,47
2018-11-11T13:01:32.359Z,46.5
2018-11-11T13:02:22.102Z,46
2018-11-11T13:03:11.534Z,45.5
2018-11-11T13:04:02.065Z,45
2018-11-11T13:04:52.351Z,44.6
2018-11-11T13:05:42.327Z,44.1
2018-11-11T13:06:32.407Z,43.6
2018-11-11T13:07:22.459Z,43.2
2018-11-11T13:08:12.300Z,42.8
2018-11-11T13:09:02.697Z,42.4
2018-11-11T13:09:52.461Z,42
2018-11-11T13:10:42.233Z,41.6
2018-11-11T13:11:33.204Z,41.3
2018-11-11T13:12:22.818Z,40.8
2018-11-11T13:13:13.079Z,40.5
2018-11-11T13:14:02.697Z,40.2
2018-11-11T13:14:52.637Z,39.9
2018-11-11T13:15:42.864Z,39.5
2018-11-11T13:16:32.204Z,39.2
2018-11-11T13:17:23.220Z,38.9
2018-11-11T13:18:12.977Z,38.6
2018-11-11T13:19:03.364Z,38.3
2018-11-11T13:19:52.748Z,38
2018-11-11T13:20:43.094Z,37.7
2018-11-11T13:21:33.318Z,37.4
2018-11-11T13:22:24.069Z,37.2
2018-11-11T13:23:13.416Z,36.9
2018-11-11T13:24:02.821Z,36.6
2018-11-11T13:24:52.988Z,36.4
2018-11-11T13:25:43.700Z,36.2
2018-11-11T13:26:34.116Z,35.9
2018-11-11T13:27:23.691Z,35.7
2018-11-11T13:28:13.864Z,35.4
2018-11-11T13:29:03.692Z,35.3
2018-11-11T13:29:53.170Z,35.1
2018-11-11T13:30:43.427Z,34.8
2018-11-11T13:31:34.582Z,34.6
2018-11-11T13:32:23.778Z,34.4
2018-11-11T13:33:13.970Z,34.3
2018-11-11T13:34:03.871Z,34.1
2018-11-11T13:34:54.374Z,33.8
2018-11-11T13:35:44.313Z,33.6
2018-11-11T13:36:33.905Z,33.4
2018-11-11T13:37:24.452Z,33.3
2018-11-11T13:38:14.403Z,33.1
2018-11-11T13:39:04.614Z,32.9
2018-11-11T13:39:53.808Z,32.8
2018-11-11T13:40:44.253Z,32.6
2018-11-11T13:41:34.495Z,32.5
2018-11-11T13:42:24.148Z,32.3
2018-11-11T13:43:14.438Z,32.2
2018-11-11T13:44:04.290Z,32
2018-11-11T13:44:54.721Z,31.9